Glasgow, MT

10:14 PM MDT on June 23, 2017 (GMT -0600)
East Glasgow | | Change Station

Elev 2205 ft 48.19 °N, 106.61 °W | Updated 4 minutes ago

Clear
Clear
58.1 °F
Feels Like 58.1 °F
N
1.0
Wind Variable Wind from WNW
Gusts 2.0 mph

Today
High -- | Low -- °F
--% Chance of Precip.
Yesterday
High -- | Low -- °F
Precip. -- in
Pressure 30.19 in
Visibility 10.0 miles
Clouds Clear
Dew Point 29 °F
Humidity 33%
Rainfall 0.00 in
Snow Depth Not available.
5:06 AM 9:11 PM
New Moon, 0% visible
METAR KGGW 240353Z AUTO 30004KT 10SM CLR 14/M02 A3019 RMK AO2 SLP224 T01391017
Pressure 30.19 in
Visibility 10.0 miles
Clouds Clear
Dew Point 29 °F
Humidity 33%
Rainfall 0.00 in
Snow Depth Not available.
5:06 AM 9:11 PM
New Moon, 0% visible
METAR KGGW 240353Z AUTO 30004KT 10SM CLR 14/M02 A3019 RMK AO2 SLP224 T01391017

Get Severe Weather Alerts

Thanks for signing up!

Be on the lookout for a verification email in your inbox.

You'll start receiving the daily forecast at 6 AM.

×

10-Day Weather Forecast

Almanac

Astronomy

Jun. 23, 2017 Rise Set
Actual Time
Civil Twilight
Nautical Twilight
Astronomical Twilight
Moon
Length of Visible Light
Length of Day
Tomorrow will be .
, % of the Moon is Illuminated

Today's Extremes

State Highs State Lows

Community

WunderPhotos

Category 6

Welcome to Category 6. This is the collective home for Weather Underground's featured writeups by Dr. Jeff Masters (right), Bob Henson (left), Chris Burt, and other regular contributors.

Nearby

Air Quality

  Air Quality AQ Index Pollutant
Not available.

Snow Depth

Station Depth Elevation

Earthquake Activity

City Distance Mag. Time & Date
Minimum magnitude displayed is 2.5.

Coastal Water Temperatures

Place Temperature

Stations

Nearby Weather Stations

Station Location Temp. Windchill Dew Point Humidity Wind Precip. Elev Updated Type
                   

Watches & Warnings

There are currently no watches in effect.